Hlavní strana
METAR-TAF:

METAR-TAF

Letiště :

Letiště Madeira

Funchal, Madeira, Portugalsko

zeměpisná šířka: 32-41-52N, zeměpisná délka: 016-46-28W, výška: 59 m

Aktuální stav počasí

Zpráva byla vytvořena před 20 minutami, v 14:00 UTC
Jihozápadní vítr 24 kt
Teplota 23°C
Vlhkost vzduchu 36%
Tlak 1020 hPa
Viditelnost 10 km a více
Skoro jasno ve výšce 1600 ft

METAR: LPMA 221400Z 22024KT 9999 FEW016 23/07 Q1020

Čas: 14:20 (14:20 UTC)

Předpověď počasí

Zpráva byla vytvořena před 3 hodinami a 20 minutami, v 11:00 UTC
Předpověď platná od 22 v 12 UTC do 23 v 12 UTC
Jihozápadní vítr 22 kt
Viditelnost 10 km a více
Polojasno ve výšce 1600 ft
Pravděpodobnost 40% :
Dočasný
od 22 v 12 UTC do 22 v 18 UTC
Jihozápadní vítr 25 kt s nárazy do 35 kt
Změna
od 22 v 18 UTC do 22 v 21 UTC
Jihozápadní vítr 10 kt
Dočasný
od 23 v 02 UTC do 23 v 10 UTC
vítr z různých směrů 5 kt

TAF: LPMA 221100Z 2212/2312 22022KT 9999 SCT016 PROB40 TEMPO 2212/2218 22025G35KT BECMG 2218/2221 22010KT TEMPO 2302/2310 VRB05KT

Stav a předpovědi počasí z více než 4 000 letišť (zprávy METAR a TAF).

Červené a žluté tečky na mapě představují dostupné meteorologické stanice.

Když kurzor umístíte na tečku, zobrazí se název stanice.

Pak kliknutím zobrazíte stav a předpověď počasí.

Chcete-li změnit mapu, kliknutím na zelené tlačítko se znaménkem +mapu přiblížíte, kliknutím na zelené tlačítko se znaménkem – mapu oddálíte a kliknutím na zelené šipky přejdete na sousední mapy.


METAR-TAF: